sensor_id;sensor_type;location;lat;lon;timestamp;P1;durP1;ratioP1;P2;durP2;ratioP2
50575;SDS011;76633;45.642;12.198;2024-03-06T00:02:07;17.67;;;12.02;;
50575;SDS011;76633;45.642;12.198;2024-03-06T00:04:33;24.58;;;13.05;;
50575;SDS011;76633;45.642;12.198;2024-03-06T00:06:59;18.38;;;12.18;;
50575;SDS011;76633;45.642;12.198;2024-03-06T00:09:25;19.75;;;12.73;;
50575;SDS011;76633;45.642;12.198;2024-03-06T00:11:57;13.75;;;11.05;;
50575;SDS011;76633;45.642;12.198;2024-03-06T00:14:23;16.70;;;11.35;;
50575;SDS011;76633;45.642;12.198;2024-03-06T00:16:49;17.95;;;10.38;;
50575;SDS011;76633;45.642;12.198;2024-03-06T00:19:19;14.52;;;9.93;;
50575;SDS011;76633;45.642;12.198;2024-03-06T00:21:45;14.93;;;9.50;;
50575;SDS011;76633;45.642;12.198;2024-03-06T00:24:14;13.73;;;9.18;;
50575;SDS011;76633;45.642;12.198;2024-03-06T00:26:41;15.10;;;9.57;;
50575;SDS011;76633;45.642;12.198;2024-03-06T00:29:07;15.63;;;9.73;;
50575;SDS011;76633;45.642;12.198;2024-03-06T00:31:34;14.63;;;10.30;;
50575;SDS011;76633;45.642;12.198;2024-03-06T00:33:59;12.35;;;9.73;;
50575;SDS011;76633;45.642;12.198;2024-03-06T00:36:25;16.45;;;9.07;;
50575;SDS011;76633;45.642;12.198;2024-03-06T00:38:51;13.35;;;9.13;;
50575;SDS011;76633;45.642;12.198;2024-03-06T00:41:16;11.15;;;7.57;;
50575;SDS011;76633;45.642;12.198;2024-03-06T00:43:42;12.40;;;8.15;;
50575;SDS011;76633;45.642;12.198;2024-03-06T00:46:08;11.85;;;7.85;;
50575;SDS011;76633;45.642;12.198;2024-03-06T00:48:34;11.25;;;7.22;;
50575;SDS011;76633;45.642;12.198;2024-03-06T00:50:59;12.75;;;7.10;;
50575;SDS011;76633;45.642;12.198;2024-03-06T00:53:25;12.20;;;6.15;;
50575;SDS011;76633;45.642;12.198;2024-03-06T00:55:51;11.80;;;5.75;;
50575;SDS011;76633;45.642;12.198;2024-03-06T00:58:16;8.85;;;5.32;;
50575;SDS011;76633;45.642;12.198;2024-03-06T01:00:42;10.73;;;4.80;;
50575;SDS011;76633;45.642;12.198;2024-03-06T01:03:08;9.25;;;4.97;;
50575;SDS011;76633;45.642;12.198;2024-03-06T01:05:33;11.35;;;4.65;;
50575;SDS011;76633;45.642;12.198;2024-03-06T01:07:59;16.80;;;7.15;;
50575;SDS011;76633;45.642;12.198;2024-03-06T01:10:25;16.63;;;9.05;;
50575;SDS011;76633;45.642;12.198;2024-03-06T01:12:51;13.95;;;5.75;;
50575;SDS011;76633;45.642;12.198;2024-03-06T01:15:16;13.10;;;5.20;;
50575;SDS011;76633;45.642;12.198;2024-03-06T01:17:42;15.75;;;4.97;;
50575;SDS011;76633;45.642;12.198;2024-03-06T01:20:08;13.00;;;4.60;;
50575;SDS011;76633;45.642;12.198;2024-03-06T01:22:34;9.63;;;4.50;;
50575;SDS011;76633;45.642;12.198;2024-03-06T01:25:00;12.15;;;4.55;;
50575;SDS011;76633;45.642;12.198;2024-03-06T01:27:26;7.00;;;3.88;;
50575;SDS011;76633;45.642;12.198;2024-03-06T01:29:52;9.98;;;4.70;;
50575;SDS011;76633;45.642;12.198;2024-03-06T01:32:18;13.95;;;4.97;;
50575;SDS011;76633;45.642;12.198;2024-03-06T01:34:44;10.85;;;4.15;;
50575;SDS011;76633;45.642;12.198;2024-03-06T01:37:09;15.02;;;4.60;;
50575;SDS011;76633;45.642;12.198;2024-03-06T01:39:35;12.10;;;4.57;;
50575;SDS011;76633;45.642;12.198;2024-03-06T01:42:01;11.13;;;3.67;;
50575;SDS011;76633;45.642;12.198;2024-03-06T01:44:28;10.43;;;4.20;;
50575;SDS011;76633;45.642;12.198;2024-03-06T01:46:54;10.27;;;4.05;;
50575;SDS011;76633;45.642;12.198;2024-03-06T01:49:19;11.95;;;4.13;;
50575;SDS011;76633;45.642;12.198;2024-03-06T01:51:50;6.90;;;3.70;;
50575;SDS011;76633;45.642;12.198;2024-03-06T01:54:18;7.10;;;3.25;;
50575;SDS011;76633;45.642;12.198;2024-03-06T01:56:45;15.52;;;4.00;;
50575;SDS011;76633;45.642;12.198;2024-03-06T01:59:12;10.57;;;3.90;;
50575;SDS011;76633;45.642;12.198;2024-03-06T02:01:38;8.20;;;3.75;;
50575;SDS011;76633;45.642;12.198;2024-03-06T02:04:05;11.15;;;3.72;;
50575;SDS011;76633;45.642;12.198;2024-03-06T02:06:34;10.25;;;3.92;;
50575;SDS011;76633;45.642;12.198;2024-03-06T02:09:01;10.38;;;3.42;;
50575;SDS011;76633;45.642;12.198;2024-03-06T02:11:28;12.23;;;4.05;;
50575;SDS011;76633;45.642;12.198;2024-03-06T02:13:54;10.73;;;4.10;;
50575;SDS011;76633;45.642;12.198;2024-03-06T02:16:20;8.85;;;4.07;;
50575;SDS011;76633;45.642;12.198;2024-03-06T02:18:52;10.95;;;4.32;;
50575;SDS011;76633;45.642;12.198;2024-03-06T02:21:19;8.50;;;3.58;;
50575;SDS011;76633;45.642;12.198;2024-03-06T02:23:48;8.77;;;4.10;;
50575;SDS011;76633;45.642;12.198;2024-03-06T02:26:14;9.95;;;4.00;;
50575;SDS011;76633;45.642;12.198;2024-03-06T02:28:46;11.63;;;4.20;;
50575;SDS011;76633;45.642;12.198;2024-03-06T02:31:12;12.70;;;4.35;;
50575;SDS011;76633;45.642;12.198;2024-03-06T02:33:38;14.57;;;4.82;;
50575;SDS011;76633;45.642;12.198;2024-03-06T02:36:04;18.67;;;4.55;;
50575;SDS011;76633;45.642;12.198;2024-03-06T02:38:30;11.02;;;4.32;;
50575;SDS011;76633;45.642;12.198;2024-03-06T02:40:56;10.93;;;4.30;;
50575;SDS011;76633;45.642;12.198;2024-03-06T02:43:22;13.95;;;4.70;;
50575;SDS011;76633;45.642;12.198;2024-03-06T02:45:47;12.27;;;4.47;;
50575;SDS011;76633;45.642;12.198;2024-03-06T02:48:13;10.82;;;4.60;;
50575;SDS011;76633;45.642;12.198;2024-03-06T02:50:39;11.57;;;5.07;;
50575;SDS011;76633;45.642;12.198;2024-03-06T02:53:04;15.13;;;5.63;;
50575;SDS011;76633;45.642;12.198;2024-03-06T02:55:30;10.18;;;4.85;;
50575;SDS011;76633;45.642;12.198;2024-03-06T02:57:56;15.95;;;6.03;;
50575;SDS011;76633;45.642;12.198;2024-03-06T03:00:21;13.88;;;5.43;;
50575;SDS011;76633;45.642;12.198;2024-03-06T03:02:47;17.45;;;5.32;;
50575;SDS011;76633;45.642;12.198;2024-03-06T03:05:13;11.50;;;5.22;;
50575;SDS011;76633;45.642;12.198;2024-03-06T03:07:38;16.17;;;5.82;;
50575;SDS011;76633;45.642;12.198;2024-03-06T03:10:04;14.45;;;5.63;;
50575;SDS011;76633;45.642;12.198;2024-03-06T03:12:31;16.55;;;5.95;;
50575;SDS011;76633;45.642;12.198;2024-03-06T03:14:57;11.45;;;6.15;;
50575;SDS011;76633;45.642;12.198;2024-03-06T03:17:22;13.18;;;5.65;;
50575;SDS011;76633;45.642;12.198;2024-03-06T03:19:48;17.23;;;5.53;;
50575;SDS011;76633;45.642;12.198;2024-03-06T03:22:14;13.00;;;6.20;;
50575;SDS011;76633;45.642;12.198;2024-03-06T03:24:41;14.75;;;6.22;;
50575;SDS011;76633;45.642;12.198;2024-03-06T03:27:07;12.25;;;5.75;;
50575;SDS011;76633;45.642;12.198;2024-03-06T03:29:33;13.57;;;6.35;;
50575;SDS011;76633;45.642;12.198;2024-03-06T03:31:58;14.82;;;6.65;;
50575;SDS011;76633;45.642;12.198;2024-03-06T03:34:24;11.27;;;6.03;;
50575;SDS011;76633;45.642;12.198;2024-03-06T03:36:50;17.42;;;7.25;;
50575;SDS011;76633;45.642;12.198;2024-03-06T03:39:15;16.27;;;6.03;;
50575;SDS011;76633;45.642;12.198;2024-03-06T03:41:44;17.30;;;6.60;;
50575;SDS011;76633;45.642;12.198;2024-03-06T03:44:14;13.73;;;6.70;;
50575;SDS011;76633;45.642;12.198;2024-03-06T03:46:41;15.00;;;6.32;;
50575;SDS011;76633;45.642;12.198;2024-03-06T03:49:07;14.90;;;7.03;;
50575;SDS011;76633;45.642;12.198;2024-03-06T03:51:37;14.50;;;7.32;;
50575;SDS011;76633;45.642;12.198;2024-03-06T03:54:04;11.55;;;6.93;;
50575;SDS011;76633;45.642;12.198;2024-03-06T03:56:30;16.27;;;7.07;;
50575;SDS011;76633;45.642;12.198;2024-03-06T03:58:57;18.48;;;8.43;;
50575;SDS011;76633;45.642;12.198;2024-03-06T04:01:23;15.00;;;8.43;;
50575;SDS011;76633;45.642;12.198;2024-03-06T04:03:50;21.25;;;8.75;;
50575;SDS011;76633;45.642;12.198;2024-03-06T04:06:16;22.13;;;9.07;;
50575;SDS011;76633;45.642;12.198;2024-03-06T04:08:43;15.95;;;9.70;;
50575;SDS011;76633;45.642;12.198;2024-03-06T04:11:09;15.30;;;9.32;;
50575;SDS011;76633;45.642;12.198;2024-03-06T04:13:38;22.58;;;10.63;;
50575;SDS011;76633;45.642;12.198;2024-03-06T04:16:04;18.77;;;9.73;;
50575;SDS011;76633;45.642;12.198;2024-03-06T04:18:33;16.88;;;9.20;;
50575;SDS011;76633;45.642;12.198;2024-03-06T04:21:01;20.90;;;9.25;;
50575;SDS011;76633;45.642;12.198;2024-03-06T04:23:31;19.30;;;9.50;;
50575;SDS011;76633;45.642;12.198;2024-03-06T04:25:57;17.77;;;9.80;;
50575;SDS011;76633;45.642;12.198;2024-03-06T04:28:23;15.90;;;9.45;;
50575;SDS011;76633;45.642;12.198;2024-03-06T04:30:49;20.27;;;9.98;;
50575;SDS011;76633;45.642;12.198;2024-03-06T04:33:15;16.77;;;9.75;;
50575;SDS011;76633;45.642;12.198;2024-03-06T04:35:41;22.23;;;10.32;;
50575;SDS011;76633;45.642;12.198;2024-03-06T04:38:07;16.45;;;9.70;;
50575;SDS011;76633;45.642;12.198;2024-03-06T04:40:33;19.27;;;9.52;;
50575;SDS011;76633;45.642;12.198;2024-03-06T04:43:02;20.00;;;10.35;;
50575;SDS011;76633;45.642;12.198;2024-03-06T04:45:27;18.48;;;10.43;;
50575;SDS011;76633;45.642;12.198;2024-03-06T04:47:54;14.95;;;10.13;;
50575;SDS011;76633;45.642;12.198;2024-03-06T04:50:20;16.65;;;10.73;;
50575;SDS011;76633;45.642;12.198;2024-03-06T04:52:46;19.42;;;11.90;;
50575;SDS011;76633;45.642;12.198;2024-03-06T04:55:11;21.27;;;12.23;;
50575;SDS011;76633;45.642;12.198;2024-03-06T04:57:39;22.38;;;12.73;;
50575;SDS011;76633;45.642;12.198;2024-03-06T05:00:07;24.23;;;13.90;;
50575;SDS011;76633;45.642;12.198;2024-03-06T05:02:34;20.75;;;13.68;;
50575;SDS011;76633;45.642;12.198;2024-03-06T05:05:01;22.42;;;13.93;;
50575;SDS011;76633;45.642;12.198;2024-03-06T05:07:30;22.30;;;13.25;;
50575;SDS011;76633;45.642;12.198;2024-03-06T05:09:56;23.45;;;14.18;;
50575;SDS011;76633;45.642;12.198;2024-03-06T05:12:23;23.40;;;14.88;;
50575;SDS011;76633;45.642;12.198;2024-03-06T05:14:53;24.08;;;15.52;;
50575;SDS011;76633;45.642;12.198;2024-03-06T05:17:20;19.25;;;14.32;;
50575;SDS011;76633;45.642;12.198;2024-03-06T05:19:46;23.73;;;13.95;;
50575;SDS011;76633;45.642;12.198;2024-03-06T05:22:15;22.23;;;14.38;;
50575;SDS011;76633;45.642;12.198;2024-03-06T05:24:44;23.42;;;14.50;;
50575;SDS011;76633;45.642;12.198;2024-03-06T05:27:10;19.58;;;14.05;;
50575;SDS011;76633;45.642;12.198;2024-03-06T05:29:41;22.73;;;15.32;;
50575;SDS011;76633;45.642;12.198;2024-03-06T05:32:08;21.80;;;14.70;;
50575;SDS011;76633;45.642;12.198;2024-03-06T05:34:34;19.50;;;14.00;;
50575;SDS011;76633;45.642;12.198;2024-03-06T05:37:00;21.75;;;14.52;;
50575;SDS011;76633;45.642;12.198;2024-03-06T05:39:26;20.25;;;14.95;;
50575;SDS011;76633;45.642;12.198;2024-03-06T05:41:54;19.80;;;14.43;;
50575;SDS011;76633;45.642;12.198;2024-03-06T05:44:21;19.20;;;13.43;;
50575;SDS011;76633;45.642;12.198;2024-03-06T05:46:47;20.35;;;13.38;;
50575;SDS011;76633;45.642;12.198;2024-03-06T05:49:13;15.43;;;13.15;;
50575;SDS011;76633;45.642;12.198;2024-03-06T05:51:39;20.23;;;13.98;;
50575;SDS011;76633;45.642;12.198;2024-03-06T05:54:05;20.77;;;13.48;;
50575;SDS011;76633;45.642;12.198;2024-03-06T05:56:33;18.48;;;12.90;;
50575;SDS011;76633;45.642;12.198;2024-03-06T05:58:59;16.75;;;13.07;;
50575;SDS011;76633;45.642;12.198;2024-03-06T06:01:29;18.77;;;13.80;;
50575;SDS011;76633;45.642;12.198;2024-03-06T06:03:58;16.90;;;13.20;;
50575;SDS011;76633;45.642;12.198;2024-03-06T06:06:25;23.23;;;13.27;;
50575;SDS011;76633;45.642;12.198;2024-03-06T06:08:51;16.98;;;13.18;;
50575;SDS011;76633;45.642;12.198;2024-03-06T06:11:17;17.58;;;12.35;;
50575;SDS011;76633;45.642;12.198;2024-03-06T06:13:42;18.30;;;12.77;;
50575;SDS011;76633;45.642;12.198;2024-03-06T06:16:08;19.65;;;12.35;;
50575;SDS011;76633;45.642;12.198;2024-03-06T06:18:34;17.98;;;13.27;;
50575;SDS011;76633;45.642;12.198;2024-03-06T06:20:59;20.05;;;12.02;;
50575;SDS011;76633;45.642;12.198;2024-03-06T06:23:25;16.52;;;11.55;;
50575;SDS011;76633;45.642;12.198;2024-03-06T06:25:51;16.35;;;11.68;;
50575;SDS011;76633;45.642;12.198;2024-03-06T06:28:17;20.05;;;11.30;;
50575;SDS011;76633;45.642;12.198;2024-03-06T06:30:42;13.90;;;10.95;;
50575;SDS011;76633;45.642;12.198;2024-03-06T06:33:08;15.43;;;10.50;;
50575;SDS011;76633;45.642;12.198;2024-03-06T06:35:34;14.05;;;11.05;;
50575;SDS011;76633;45.642;12.198;2024-03-06T06:38:02;14.18;;;10.18;;
50575;SDS011;76633;45.642;12.198;2024-03-06T06:40:28;14.05;;;10.02;;
50575;SDS011;76633;45.642;12.198;2024-03-06T06:42:53;16.30;;;10.10;;
50575;SDS011;76633;45.642;12.198;2024-03-06T06:45:20;12.50;;;9.65;;
50575;SDS011;76633;45.642;12.198;2024-03-06T06:47:49;15.90;;;10.70;;
50575;SDS011;76633;45.642;12.198;2024-03-06T06:50:16;19.08;;;9.73;;
50575;SDS011;76633;45.642;12.198;2024-03-06T06:52:42;13.90;;;9.48;;
50575;SDS011;76633;45.642;12.198;2024-03-06T06:55:08;16.92;;;9.00;;
50575;SDS011;76633;45.642;12.198;2024-03-06T06:57:37;16.38;;;9.88;;
50575;SDS011;76633;45.642;12.198;2024-03-06T07:00:03;11.90;;;9.68;;
50575;SDS011;76633;45.642;12.198;2024-03-06T07:02:38;13.85;;;9.55;;
50575;SDS011;76633;45.642;12.198;2024-03-06T07:05:07;12.38;;;9.18;;
50575;SDS011;76633;45.642;12.198;2024-03-06T07:07:34;13.23;;;8.82;;
50575;SDS011;76633;45.642;12.198;2024-03-06T07:10:00;14.50;;;8.52;;
50575;SDS011;76633;45.642;12.198;2024-03-06T07:12:29;12.48;;;7.70;;
50575;SDS011;76633;45.642;12.198;2024-03-06T07:14:56;12.55;;;8.18;;
50575;SDS011;76633;45.642;12.198;2024-03-06T07:17:21;12.23;;;7.90;;
50575;SDS011;76633;45.642;12.198;2024-03-06T07:19:47;9.98;;;7.15;;
50575;SDS011;76633;45.642;12.198;2024-03-06T07:22:13;10.07;;;7.25;;
50575;SDS011;76633;45.642;12.198;2024-03-06T07:24:39;11.10;;;6.95;;
50575;SDS011;76633;45.642;12.198;2024-03-06T07:27:05;10.93;;;7.30;;
50575;SDS011;76633;45.642;12.198;2024-03-06T07:29:30;8.07;;;6.00;;
50575;SDS011;76633;45.642;12.198;2024-03-06T07:31:56;7.43;;;5.20;;
50575;SDS011;76633;45.642;12.198;2024-03-06T07:34:22;9.65;;;5.45;;
50575;SDS011;76633;45.642;12.198;2024-03-06T07:36:48;9.85;;;5.45;;
50575;SDS011;76633;45.642;12.198;2024-03-06T07:39:16;7.72;;;5.43;;
50575;SDS011;76633;45.642;12.198;2024-03-06T07:41:43;7.45;;;4.75;;
50575;SDS011;76633;45.642;12.198;2024-03-06T07:44:09;8.18;;;4.28;;
50575;SDS011;76633;45.642;12.198;2024-03-06T07:46:35;5.85;;;3.25;;
50575;SDS011;76633;45.642;12.198;2024-03-06T07:49:01;13.40;;;4.22;;
50575;SDS011;76633;45.642;12.198;2024-03-06T07:51:28;8.68;;;3.13;;
50575;SDS011;76633;45.642;12.198;2024-03-06T07:53:55;8.63;;;3.20;;
50575;SDS011;76633;45.642;12.198;2024-03-06T07:56:22;4.72;;;3.10;;
50575;SDS011;76633;45.642;12.198;2024-03-06T07:58:48;6.18;;;3.00;;
50575;SDS011;76633;45.642;12.198;2024-03-06T08:01:14;8.25;;;2.75;;
50575;SDS011;76633;45.642;12.198;2024-03-06T08:03:40;4.60;;;2.60;;
50575;SDS011;76633;45.642;12.198;2024-03-06T08:06:08;6.68;;;2.80;;
50575;SDS011;76633;45.642;12.198;2024-03-06T08:08:34;5.28;;;2.45;;
50575;SDS011;76633;45.642;12.198;2024-03-06T08:11:00;5.55;;;2.35;;
50575;SDS011;76633;45.642;12.198;2024-03-06T08:13:26;4.15;;;2.20;;
50575;SDS011;76633;45.642;12.198;2024-03-06T08:15:52;3.20;;;1.88;;
50575;SDS011;76633;45.642;12.198;2024-03-06T08:18:18;4.38;;;2.33;;
50575;SDS011;76633;45.642;12.198;2024-03-06T08:20:44;6.63;;;2.63;;
50575;SDS011;76633;45.642;12.198;2024-03-06T08:23:10;4.53;;;2.15;;
50575;SDS011;76633;45.642;12.198;2024-03-06T08:25:35;5.15;;;2.50;;
50575;SDS011;76633;45.642;12.198;2024-03-06T08:28:01;5.75;;;2.58;;
50575;SDS011;76633;45.642;12.198;2024-03-06T08:30:30;6.40;;;2.88;;
50575;SDS011;76633;45.642;12.198;2024-03-06T08:32:57;6.13;;;2.70;;
50575;SDS011;76633;45.642;12.198;2024-03-06T08:35:23;7.05;;;3.00;;
50575;SDS011;76633;45.642;12.198;2024-03-06T08:37:49;6.95;;;3.05;;
50575;SDS011;76633;45.642;12.198;2024-03-06T08:40:16;5.38;;;3.13;;
50575;SDS011;76633;45.642;12.198;2024-03-06T08:42:48;4.78;;;3.03;;
50575;SDS011;76633;45.642;12.198;2024-03-06T08:45:14;5.53;;;3.15;;
50575;SDS011;76633;45.642;12.198;2024-03-06T08:47:42;6.00;;;2.83;;
50575;SDS011;76633;45.642;12.198;2024-03-06T08:50:08;4.82;;;3.00;;
50575;SDS011;76633;45.642;12.198;2024-03-06T08:52:35;3.67;;;2.95;;
50575;SDS011;76633;45.642;12.198;2024-03-06T08:55:01;5.25;;;3.22;;
50575;SDS011;76633;45.642;12.198;2024-03-06T08:57:31;4.72;;;3.20;;
50575;SDS011;76633;45.642;12.198;2024-03-06T08:59:57;8.10;;;3.10;;
50575;SDS011;76633;45.642;12.198;2024-03-06T09:02:23;4.63;;;3.40;;
50575;SDS011;76633;45.642;12.198;2024-03-06T09:04:50;4.82;;;3.03;;
50575;SDS011;76633;45.642;12.198;2024-03-06T09:07:19;6.10;;;3.63;;
50575;SDS011;76633;45.642;12.198;2024-03-06T09:09:48;5.82;;;4.07;;
50575;SDS011;76633;45.642;12.198;2024-03-06T09:12:17;5.85;;;3.97;;
50575;SDS011;76633;45.642;12.198;2024-03-06T09:14:43;9.65;;;5.30;;
50575;SDS011;76633;45.642;12.198;2024-03-06T09:17:10;5.90;;;4.55;;
50575;SDS011;76633;45.642;12.198;2024-03-06T09:19:39;7.07;;;5.03;;
50575;SDS011;76633;45.642;12.198;2024-03-06T09:22:05;8.85;;;5.20;;
50575;SDS011;76633;45.642;12.198;2024-03-06T09:24:31;6.82;;;5.20;;
50575;SDS011;76633;45.642;12.198;2024-03-06T09:26:57;10.15;;;6.35;;
50575;SDS011;76633;45.642;12.198;2024-03-06T09:29:23;6.82;;;6.00;;
50575;SDS011;76633;45.642;12.198;2024-03-06T09:31:49;7.32;;;5.72;;
50575;SDS011;76633;45.642;12.198;2024-03-06T09:34:14;7.70;;;5.70;;
50575;SDS011;76633;45.642;12.198;2024-03-06T09:36:41;8.45;;;5.50;;
50575;SDS011;76633;45.642;12.198;2024-03-06T09:39:16;10.07;;;6.20;;
50575;SDS011;76633;45.642;12.198;2024-03-06T09:41:48;8.95;;;5.75;;
50575;SDS011;76633;45.642;12.198;2024-03-06T09:44:15;11.07;;;5.72;;
50575;SDS011;76633;45.642;12.198;2024-03-06T09:46:45;10.43;;;5.68;;
50575;SDS011;76633;45.642;12.198;2024-03-06T09:49:12;7.85;;;5.65;;
50575;SDS011;76633;45.642;12.198;2024-03-06T09:51:40;8.63;;;5.10;;
50575;SDS011;76633;45.642;12.198;2024-03-06T09:54:14;9.32;;;5.65;;
50575;SDS011;76633;45.642;12.198;2024-03-06T09:56:43;11.27;;;5.68;;
50575;SDS011;76633;45.642;12.198;2024-03-06T10:01:42;7.25;;;4.80;;
50575;SDS011;76633;45.642;12.198;2024-03-06T10:04:21;11.32;;;5.35;;
50575;SDS011;76633;45.642;12.198;2024-03-06T10:06:48;5.97;;;5.00;;
50575;SDS011;76633;45.642;12.198;2024-03-06T10:09:18;8.25;;;5.68;;
50575;SDS011;76633;45.642;12.198;2024-03-06T10:11:44;7.72;;;5.43;;
50575;SDS011;76633;45.642;12.198;2024-03-06T10:14:10;9.93;;;5.20;;
50575;SDS011;76633;45.642;12.198;2024-03-06T10:16:37;8.45;;;4.88;;
50575;SDS011;76633;45.642;12.198;2024-03-06T10:19:14;9.90;;;5.55;;
50575;SDS011;76633;45.642;12.198;2024-03-06T10:21:43;8.32;;;4.93;;
50575;SDS011;76633;45.642;12.198;2024-03-06T10:24:26;8.13;;;4.70;;
50575;SDS011;76633;45.642;12.198;2024-03-06T10:26:54;6.68;;;4.45;;
50575;SDS011;76633;45.642;12.198;2024-03-06T10:29:23;5.63;;;4.35;;
50575;SDS011;76633;45.642;12.198;2024-03-06T10:34:22;4.90;;;3.38;;
50575;SDS011;76633;45.642;12.198;2024-03-06T10:36:55;7.82;;;3.70;;
50575;SDS011;76633;45.642;12.198;2024-03-06T10:39:23;6.05;;;4.20;;
50575;SDS011;76633;45.642;12.198;2024-03-06T10:41:52;5.38;;;3.60;;
50575;SDS011;76633;45.642;12.198;2024-03-06T10:44:20;5.22;;;3.60;;
50575;SDS011;76633;45.642;12.198;2024-03-06T10:49:34;6.18;;;3.60;;
50575;SDS011;76633;45.642;12.198;2024-03-06T10:52:02;5.68;;;3.92;;
50575;SDS011;76633;45.642;12.198;2024-03-06T10:54:32;8.30;;;3.95;;
50575;SDS011;76633;45.642;12.198;2024-03-06T10:57:04;8.07;;;4.50;;
50575;SDS011;76633;45.642;12.198;2024-03-06T10:59:30;5.90;;;4.28;;
50575;SDS011;76633;45.642;12.198;2024-03-06T11:01:56;6.68;;;3.92;;
50575;SDS011;76633;45.642;12.198;2024-03-06T11:04:26;6.03;;;3.88;;
50575;SDS011;76633;45.642;12.198;2024-03-06T11:06:59;7.10;;;4.70;;
50575;SDS011;76633;45.642;12.198;2024-03-06T11:09:26;9.27;;;5.05;;
50575;SDS011;76633;45.642;12.198;2024-03-06T11:11:55;5.70;;;5.00;;
50575;SDS011;76633;45.642;12.198;2024-03-06T11:14:30;7.97;;;5.07;;
50575;SDS011;76633;45.642;12.198;2024-03-06T11:17:09;5.90;;;5.38;;
50575;SDS011;76633;45.642;12.198;2024-03-06T11:28:23;5.40;;;4.90;;
50575;SDS011;76633;45.642;12.198;2024-03-06T11:33:21;5.07;;;4.57;;
50575;SDS011;76633;45.642;12.198;2024-03-06T11:38:59;5.38;;;4.40;;
50575;SDS011;76633;45.642;12.198;2024-03-06T11:44:20;5.97;;;4.25;;
50575;SDS011;76633;45.642;12.198;2024-03-06T11:49:28;4.70;;;4.20;;
50575;SDS011;76633;45.642;12.198;2024-03-06T11:52:08;4.28;;;3.85;;
50575;SDS011;76633;45.642;12.198;2024-03-06T11:57:11;5.45;;;4.28;;
50575;SDS011;76633;45.642;12.198;2024-03-06T11:59:48;4.70;;;4.10;;
50575;SDS011;76633;45.642;12.198;2024-03-06T12:02:19;6.37;;;4.40;;
50575;SDS011;76633;45.642;12.198;2024-03-06T12:04:49;4.43;;;4.03;;
50575;SDS011;76633;45.642;12.198;2024-03-06T12:07:18;4.60;;;3.90;;
50575;SDS011;76633;45.642;12.198;2024-03-06T12:09:44;4.68;;;4.10;;
50575;SDS011;76633;45.642;12.198;2024-03-06T12:12:10;6.90;;;4.30;;
50575;SDS011;76633;45.642;12.198;2024-03-06T12:14:36;6.70;;;4.60;;
50575;SDS011;76633;45.642;12.198;2024-03-06T12:17:04;6.40;;;4.63;;
50575;SDS011;76633;45.642;12.198;2024-03-06T12:19:32;5.55;;;4.70;;
50575;SDS011;76633;45.642;12.198;2024-03-06T12:22:00;5.60;;;4.68;;
50575;SDS011;76633;45.642;12.198;2024-03-06T12:24:26;7.63;;;3.97;;
50575;SDS011;76633;45.642;12.198;2024-03-06T12:27:02;6.32;;;4.38;;
50575;SDS011;76633;45.642;12.198;2024-03-06T12:29:29;4.65;;;4.20;;
50575;SDS011;76633;45.642;12.198;2024-03-06T12:31:57;7.35;;;5.00;;
50575;SDS011;76633;45.642;12.198;2024-03-06T12:34:24;5.60;;;4.57;;
50575;SDS011;76633;45.642;12.198;2024-03-06T12:36:50;5.88;;;4.72;;
50575;SDS011;76633;45.642;12.198;2024-03-06T12:39:16;6.82;;;4.72;;
50575;SDS011;76633;45.642;12.198;2024-03-06T12:41:49;7.47;;;4.47;;
50575;SDS011;76633;45.642;12.198;2024-03-06T12:44:19;7.07;;;4.75;;
50575;SDS011;76633;45.642;12.198;2024-03-06T12:46:45;4.72;;;4.03;;
50575;SDS011;76633;45.642;12.198;2024-03-06T12:49:11;5.88;;;4.53;;
50575;SDS011;76633;45.642;12.198;2024-03-06T12:51:36;6.03;;;3.95;;
50575;SDS011;76633;45.642;12.198;2024-03-06T12:54:02;6.72;;;4.07;;
50575;SDS011;76633;45.642;12.198;2024-03-06T12:56:28;5.13;;;4.10;;
50575;SDS011;76633;45.642;12.198;2024-03-06T12:58:54;4.70;;;3.95;;
50575;SDS011;76633;45.642;12.198;2024-03-06T13:01:20;4.32;;;3.95;;
50575;SDS011;76633;45.642;12.198;2024-03-06T13:03:45;4.53;;;3.70;;
50575;SDS011;76633;45.642;12.198;2024-03-06T13:06:11;7.07;;;3.83;;
50575;SDS011;76633;45.642;12.198;2024-03-06T13:08:37;4.35;;;3.40;;
50575;SDS011;76633;45.642;12.198;2024-03-06T13:11:03;5.72;;;3.45;;
50575;SDS011;76633;45.642;12.198;2024-03-06T13:13:28;4.15;;;3.42;;
50575;SDS011;76633;45.642;12.198;2024-03-06T13:15:55;4.03;;;3.60;;
50575;SDS011;76633;45.642;12.198;2024-03-06T13:18:21;4.00;;;3.55;;
50575;SDS011;76633;45.642;12.198;2024-03-06T13:20:47;4.97;;;4.38;;
50575;SDS011;76633;45.642;12.198;2024-03-06T13:23:13;8.85;;;5.90;;
50575;SDS011;76633;45.642;12.198;2024-03-06T13:25:38;5.97;;;3.85;;
50575;SDS011;76633;45.642;12.198;2024-03-06T13:28:05;5.00;;;3.38;;
50575;SDS011;76633;45.642;12.198;2024-03-06T13:30:31;4.13;;;3.20;;
50575;SDS011;76633;45.642;12.198;2024-03-06T13:32:56;4.35;;;3.67;;
50575;SDS011;76633;45.642;12.198;2024-03-06T13:35:23;6.03;;;2.92;;
50575;SDS011;76633;45.642;12.198;2024-03-06T13:37:48;8.45;;;3.40;;
50575;SDS011;76633;45.642;12.198;2024-03-06T13:40:14;3.88;;;3.10;;
50575;SDS011;76633;45.642;12.198;2024-03-06T13:42:40;5.82;;;3.33;;
50575;SDS011;76633;45.642;12.198;2024-03-06T13:45:07;3.42;;;3.00;;
50575;SDS011;76633;45.642;12.198;2024-03-06T13:47:37;3.25;;;2.95;;
50575;SDS011;76633;45.642;12.198;2024-03-06T13:50:04;4.05;;;3.00;;
50575;SDS011;76633;45.642;12.198;2024-03-06T13:52:33;3.22;;;2.60;;
50575;SDS011;76633;45.642;12.198;2024-03-06T13:54:59;4.20;;;3.00;;
50575;SDS011;76633;45.642;12.198;2024-03-06T13:57:27;4.57;;;3.05;;
50575;SDS011;76633;45.642;12.198;2024-03-06T13:59:53;2.75;;;2.42;;
50575;SDS011;76633;45.642;12.198;2024-03-06T14:02:19;4.30;;;2.30;;
50575;SDS011;76633;45.642;12.198;2024-03-06T14:04:46;3.58;;;2.42;;
50575;SDS011;76633;45.642;12.198;2024-03-06T14:07:11;5.03;;;3.05;;
50575;SDS011;76633;45.642;12.198;2024-03-06T14:09:37;8.35;;;5.63;;
50575;SDS011;76633;45.642;12.198;2024-03-06T14:12:03;3.50;;;2.42;;
50575;SDS011;76633;45.642;12.198;2024-03-06T14:14:29;4.55;;;2.50;;
50575;SDS011;76633;45.642;12.198;2024-03-06T14:16:55;4.28;;;1.95;;
50575;SDS011;76633;45.642;12.198;2024-03-06T14:19:20;3.30;;;2.70;;
50575;SDS011;76633;45.642;12.198;2024-03-06T14:21:47;3.38;;;2.28;;
50575;SDS011;76633;45.642;12.198;2024-03-06T14:24:12;9.98;;;2.42;;
50575;SDS011;76633;45.642;12.198;2024-03-06T14:26:38;3.58;;;1.90;;
50575;SDS011;76633;45.642;12.198;2024-03-06T14:29:05;2.33;;;2.00;;
50575;SDS011;76633;45.642;12.198;2024-03-06T14:31:33;4.40;;;2.17;;
50575;SDS011;76633;45.642;12.198;2024-03-06T14:33:59;3.15;;;1.85;;
50575;SDS011;76633;45.642;12.198;2024-03-06T14:36:25;2.22;;;1.70;;
50575;SDS011;76633;45.642;12.198;2024-03-06T14:38:51;3.10;;;2.17;;
50575;SDS011;76633;45.642;12.198;2024-03-06T14:41:18;3.05;;;1.88;;
50575;SDS011;76633;45.642;12.198;2024-03-06T14:43:44;3.85;;;1.92;;
50575;SDS011;76633;45.642;12.198;2024-03-06T14:46:10;5.68;;;2.00;;
50575;SDS011;76633;45.642;12.198;2024-03-06T14:48:37;5.80;;;2.22;;
50575;SDS011;76633;45.642;12.198;2024-03-06T14:51:03;3.50;;;1.85;;
50575;SDS011;76633;45.642;12.198;2024-03-06T14:53:29;2.42;;;1.60;;
50575;SDS011;76633;45.642;12.198;2024-03-06T14:55:55;2.13;;;1.60;;